Terminal Aerodrome Forecast
Issued by NWS

Home | Current Version | Previous Version | Text Only | Print | Product List | Glossary On
Versions: 1 2 3 4 5 6 7 8 9 10 11 12 13 14 15
000
FTUS44 KSJT 221700
TAFBBD
TAF
KBBD 221720Z 2218/2318 16013KT P6SM FEW050
     FM230100 14008KT P6SM SKC
     FM231500 15011KT P6SM SKC=

USA.gov is the U.S. government's official web portal to all federal, state and local government web resources and services.